Terminal Aerodrome Forecast
Issued by NWS

Home | Current Version | Previous Version | Text Only | Print | Product List | Glossary On
Versions: 1 2 3 4 5 6 7 8 9 10 11 12
524
FTUS45 KRIW 171121
TAFCPR
TAF
KCPR 171121Z 1712/1812 22016G26KT P6SM SCT200
     FM171800 22022G32KT P6SM SCT200=

USA.gov is the U.S. government's official web portal to all federal, state and local government web resources and services.